Time;durP1;ratioP1;P1;durP2;ratioP2;P2;SDS_P1;SDS_P2;PMS_P1;PMS_P2;Temp;Humidity;BMP_temperature;BMP_pressure;BME280_temperature;BME280_humidity;BME280_pressure;Samples;Min_cycle;Max_cycle;Signal;HPM_P1;HPM_P2
2022/06/03 00:00:47;;;;;;;0.20;0.20;;;16.40;99.90;;;;;;5035886;28;20177;-81
2022/06/03 00:03:32;;;;;;;0.10;0.10;;;16.30;99.90;;;;;;5034047;28;20196;-82
2022/06/03 00:06:29;;;;;;;0.30;0.30;;;16.30;99.90;;;;;;5035838;28;20225;-82
2022/06/03 00:09:21;;;;;;;0.37;0.37;;;16.30;99.90;;;;;;5033109;28;20196;-81
2022/06/03 00:11:59;;;;;;;0.17;0.17;;;16.20;99.90;;;;;;5035147;28;20188;-81
2022/06/03 00:14:27;;;;;;;0.10;0.10;;;16.20;99.90;;;;;;5031451;28;20252;-82
2022/06/03 00:17:23;;;;;;;0.40;0.40;;;16.10;99.90;;;;;;5034774;28;20198;-80
2022/06/03 00:20:16;;;;;;;0.37;0.30;;;16.10;99.90;;;;;;5034703;28;20218;-80
2022/06/03 00:22:50;;;;;;;0.13;0.13;;;16.10;99.90;;;;;;5035937;28;20658;-81
2022/06/03 00:25:42;;;;;;;0.20;0.20;;;16.10;99.90;;;;;;5034366;28;21298;-81
2022/06/03 00:28:23;;;;;;;0.60;0.20;;;16.00;99.90;;;;;;5032463;28;20189;-80
2022/06/03 00:31:05;;;;;;;3.67;0.40;;;16.00;99.90;;;;;;5033748;28;20239;-81
2022/06/03 00:34:13;;;;;;;0.17;0.17;;;16.10;99.90;;;;;;5032291;28;20513;-81
2022/06/03 00:37:09;;;;;;;0.30;0.30;;;16.00;99.90;;;;;;5033510;28;20808;-81
2022/06/03 00:39:59;;;;;;;0.40;0.40;;;16.00;99.90;;;;;;5029408;28;20801;-81
2022/06/03 00:42:43;;;;;;;0.10;0.10;;;16.00;99.90;;;;;;5035201;28;20228;-81
2022/06/03 00:45:36;;;;;;;0.20;0.20;;;15.90;99.90;;;;;;5031886;28;20203;-81
2022/06/03 00:48:13;;;;;;;0.67;0.40;;;15.90;99.90;;;;;;5032679;28;20185;-81
2022/06/03 00:50:48;;;;;;;0.20;0.20;;;15.90;99.90;;;;;;5031664;28;20192;-81
2022/06/03 00:53:31;;;;;;;0.50;0.50;;;15.90;99.90;;;;;;5031582;28;20188;-81
2022/06/03 00:56:23;;;;;;;0.27;0.20;;;15.80;99.90;;;;;;5029713;28;20212;-81
2022/06/03 00:58:54;;;;;;;0.10;0.10;;;15.80;99.90;;;;;;5030995;28;20637;-81
2022/06/03 01:01:37;;;;;;;0.10;0.10;;;15.80;99.90;;;;;;5032657;28;20176;-81
2022/06/03 01:04:35;;;;;;;0.30;0.30;;;15.80;99.90;;;;;;5031452;28;20247;-81
2022/06/03 01:07:20;;;;;;;0.20;0.20;;;15.80;99.90;;;;;;5033844;28;20209;-80
2022/06/03 01:10:04;;;;;;;0.20;0.20;;;15.70;99.90;;;;;;5032574;28;20193;-80
2022/06/03 01:12:57;;;;;;;0.53;0.27;;;15.80;99.90;;;;;;5030830;28;20184;-81
2022/06/03 01:15:46;;;;;;;0.10;0.10;;;15.70;99.90;;;;;;5032748;28;20628;-81
2022/06/03 01:18:35;;;;;;;0.10;0.10;;;15.70;99.90;;;;;;5030504;28;20289;-81
2022/06/03 01:21:06;;;;;;;0.60;0.20;;;15.70;99.90;;;;;;5033488;28;21004;-81
2022/06/03 01:23:48;;;;;;;0.30;0.30;;;15.60;99.90;;;;;;5030833;28;20650;-81
2022/06/03 01:26:20;;;;;;;0.20;0.20;;;15.60;99.90;;;;;;5032060;28;20402;-81
2022/06/03 01:28:54;;;;;;;0.30;0.30;;;15.60;99.90;;;;;;5032458;28;20185;-81
2022/06/03 01:31:50;;;;;;;0.27;0.27;;;15.50;99.90;;;;;;5031478;28;21029;-81
2022/06/03 01:34:30;;;;;;;0.10;0.10;;;15.50;99.90;;;;;;5033936;28;20205;-81
2022/06/03 01:37:07;;;;;;;0.20;0.20;;;15.50;99.90;;;;;;5031225;28;20329;-81
2022/06/03 01:39:58;;;;;;;0.17;0.17;;;15.50;99.90;;;;;;5031030;28;20273;-80
2022/06/03 01:42:47;;;;;;;0.97;0.63;;;15.50;99.90;;;;;;5048188;28;20964;-81
2022/06/03 01:45:50;;;;;;;0.30;0.30;;;15.50;99.90;;;;;;5031603;28;20213;-81
2022/06/03 01:48:33;;;;;;;0.10;0.10;;;15.40;99.90;;;;;;5032471;28;20560;-81
2022/06/03 01:51:33;;;;;;;0.30;0.30;;;15.40;99.90;;;;;;5036059;28;20180;-81
2022/06/03 01:54:37;;;;;;;0.10;0.10;;;15.30;99.90;;;;;;5034780;28;20197;-81
2022/06/03 01:57:02;;;;;;;0.03;0.03;;;15.30;99.90;;;;;;4997699;28;21080;-81
2022/06/03 01:59:50;;;;;;;0.20;0.20;;;15.30;99.90;;;;;;4998961;28;20197;-82
2022/06/03 02:03:05;;;;;;;0.20;0.20;;;15.30;99.90;;;;;;5021093;28;20195;-81
2022/06/03 02:05:51;;;;;;;0.20;0.20;;;15.30;99.90;;;;;;5037111;28;20218;-81
2022/06/03 02:08:50;;;;;;;0.10;0.10;;;15.20;99.90;;;;;;5035132;28;20200;-81
2022/06/03 02:11:29;;;;;;;0.20;0.20;;;15.20;99.90;;;;;;5032875;28;20228;-81
2022/06/03 02:14:21;;;;;;;0.10;0.10;;;15.10;99.90;;;;;;5033853;28;20185;-81
2022/06/03 02:17:07;;;;;;;0.20;0.20;;;15.10;99.90;;;;;;5035159;28;20191;-80
2022/06/03 02:20:06;;;;;;;0.17;0.17;;;15.10;99.90;;;;;;5036753;28;20219;-81
2022/06/03 02:22:40;;;;;;;0.20;0.20;;;15.10;99.90;;;;;;5035228;28;20185;-81
2022/06/03 02:25:37;;;;;;;0.10;0.10;;;15.10;99.90;;;;;;5033815;28;20215;-81
2022/06/03 02:28:23;;;;;;;0.10;0.10;;;15.00;99.90;;;;;;5033753;28;20209;-81
2022/06/03 02:31:01;;;;;;;0.10;0.10;;;15.00;99.90;;;;;;5033166;28;20285;-81
2022/06/03 02:34:12;;;;;;;0.20;0.20;;;15.00;99.90;;;;;;5033659;28;20191;-81
2022/06/03 02:36:57;;;;;;;0.30;0.30;;;15.00;99.90;;;;;;5030309;28;21072;-81
2022/06/03 02:40:00;;;;;;;0.30;0.30;;;15.00;99.90;;;;;;5032518;28;20203;-81
2022/06/03 02:42:57;;;;;;;0.30;0.30;;;14.90;99.90;;;;;;5033888;28;20176;-81
2022/06/03 02:46:06;;;;;;;0.10;0.10;;;14.90;99.90;;;;;;5035836;28;20209;-81
2022/06/03 02:49:08;;;;;;;0.30;0.30;;;14.90;99.90;;;;;;5015587;28;20642;-80
2022/06/03 02:52:13;;;;;;;0.20;0.20;;;14.90;99.90;;;;;;5034753;28;20241;-81
2022/06/03 02:55:09;;;;;;;0.20;0.20;;;14.90;99.90;;;;;;5035534;28;20212;-81
2022/06/03 02:57:59;;;;;;;0.17;0.17;;;14.90;99.90;;;;;;5033588;28;20190;-81
2022/06/03 03:01:03;;;;;;;0.23;0.23;;;14.90;99.90;;;;;;5034747;28;20189;-81
2022/06/03 03:03:43;;;;;;;0.17;0.17;;;14.90;99.90;;;;;;5033803;28;20181;-81
2022/06/03 03:06:28;;;;;;;0.20;0.20;;;14.90;99.90;;;;;;5033283;28;20231;-81
2022/06/03 03:09:02;;;;;;;0.20;0.20;;;14.80;99.90;;;;;;5032453;28;20247;-81
2022/06/03 03:12:16;;;;;;;0.20;0.20;;;14.80;99.90;;;;;;5036911;28;20611;-80
2022/06/03 03:14:54;;;;;;;0.20;0.20;;;14.80;99.90;;;;;;5033870;28;20194;-81
2022/06/03 03:17:42;;;;;;;0.20;0.20;;;14.80;99.90;;;;;;5035102;28;20696;-81
2022/06/03 03:20:25;;;;;;;0.10;0.10;;;14.80;99.90;;;;;;5035803;28;21205;-81
2022/06/03 03:23:16;;;;;;;0.30;0.30;;;14.90;99.90;;;;;;5033977;28;20591;-81
2022/06/03 03:26:12;;;;;;;0.40;0.40;;;14.90;99.90;;;;;;5032140;28;20241;-81
2022/06/03 03:28:46;;;;;;;0.50;0.20;;;14.90;99.90;;;;;;5032926;28;20181;-81
2022/06/03 03:31:46;;;;;;;0.30;0.27;;;14.90;99.90;;;;;;5033708;28;20679;-81
2022/06/03 03:34:27;;;;;;;0.40;0.40;;;14.80;99.90;;;;;;5033937;28;20232;-81
2022/06/03 03:37:18;;;;;;;0.17;0.17;;;14.70;99.90;;;;;;5033296;28;20207;-81
2022/06/03 03:40:19;;;;;;;0.30;0.30;;;14.90;99.90;;;;;;5033786;28;20192;-81
2022/06/03 03:43:06;;;;;;;0.30;0.30;;;15.10;99.90;;;;;;5033559;28;20177;-80
2022/06/03 03:46:00;;;;;;;0.20;0.20;;;15.10;99.90;;;;;;5035929;28;20210;-81
2022/06/03 03:48:44;;;;;;;0.10;0.10;;;15.40;99.90;;;;;;5038045;28;20267;-82
2022/06/03 03:51:22;;;;;;;0.13;0.13;;;15.70;99.90;;;;;;5025346;28;20191;-81
2022/06/03 03:54:20;;;;;;;0.20;0.20;;;15.60;99.90;;;;;;5027908;28;20180;-81
2022/06/03 03:57:05;;;;;;;0.10;0.10;;;16.50;99.90;;;;;;5016383;28;20194;-80
2022/06/03 03:59:50;;;;;;;0.10;0.10;;;17.50;99.90;;;;;;5032381;28;20229;-81
2022/06/03 04:02:36;;;;;;;0.10;0.10;;;17.70;99.90;;;;;;5033483;28;20190;-80
2022/06/03 04:05:37;;;;;;;0.20;0.20;;;17.90;99.90;;;;;;5032747;28;20594;-81
2022/06/03 04:08:41;;;;;;;0.20;0.20;;;18.90;99.90;;;;;;5029925;28;20240;-80
2022/06/03 04:11:34;;;;;;;0.20;0.20;;;20.00;99.90;;;;;;5012292;28;20197;-81
2022/06/03 04:14:20;;;;;;;0.20;0.20;;;20.80;99.90;;;;;;5010850;28;20281;-81
2022/06/03 04:17:10;;;;;;;0.20;0.20;;;21.60;99.90;;;;;;5026162;28;20205;-81
2022/06/03 04:19:53;;;;;;;0.20;0.20;;;21.90;99.90;;;;;;5034174;28;20267;-81
2022/06/03 04:22:33;;;;;;;0.27;0.13;;;21.60;99.90;;;;;;5036032;28;20240;-81
2022/06/03 04:25:38;;;;;;;0.10;0.10;;;20.70;99.90;;;;;;5034540;28;20201;-81
2022/06/03 04:28:42;;;;;;;0.30;0.30;;;19.40;99.90;;;;;;5032902;28;20220;-81
2022/06/03 04:31:46;;;;;;;1.37;0.50;;;18.60;99.90;;;;;;5036045;28;20237;-81
2022/06/03 04:34:39;;;;;;;0.30;0.30;;;18.00;99.90;;;;;;5033591;28;20201;-81
2022/06/03 04:37:29;;;;;;;0.20;0.20;;;17.70;99.90;;;;;;5035152;28;20186;-81
2022/06/03 04:40:13;;;;;;;0.30;0.30;;;17.30;99.90;;;;;;5028399;28;20178;-81
2022/06/03 04:42:53;;;;;;;0.10;0.10;;;17.20;99.90;;;;;;5031472;28;20907;-81
2022/06/03 04:45:20;;;;;;;0.20;0.20;;;17.20;99.90;;;;;;5030325;28;20210;-80
2022/06/03 04:48:04;;;;;;;0.30;0.27;;;17.10;99.90;;;;;;5029418;28;20901;-81
2022/06/03 04:50:46;;;;;;;0.30;0.30;;;17.20;99.90;;;;;;5033521;28;21157;-83
2022/06/03 04:53:58;;;;;;;0.20;0.20;;;17.10;99.90;;;;;;5034431;28;20182;-82
2022/06/03 04:56:49;;;;;;;0.17;0.17;;;17.00;99.90;;;;;;5030827;28;20213;-80
2022/06/03 05:00:00;;;;;;;0.30;0.30;;;16.90;99.90;;;;;;5032978;28;20259;-81
2022/06/03 05:02:56;;;;;;;0.27;0.27;;;16.80;99.90;;;;;;5028564;28;20187;-81
2022/06/03 05:05:37;;;;;;;0.20;0.20;;;16.80;99.90;;;;;;5031854;28;20233;-80
2022/06/03 05:08:12;;;;;;;0.40;0.40;;;16.70;99.90;;;;;;5033387;28;20190;-80
2022/06/03 05:11:08;;;;;;;0.37;0.37;;;16.70;99.90;;;;;;5030418;28;20228;-81
2022/06/03 05:13:52;;;;;;;0.27;0.27;;;16.80;99.90;;;;;;5033755;28;20285;-82
2022/06/03 05:16:42;;;;;;;0.20;0.20;;;16.90;99.90;;;;;;5034399;28;20208;-82
2022/06/03 05:19:31;;;;;;;0.20;0.20;;;17.00;99.90;;;;;;5032360;28;20186;-81
2022/06/03 05:22:13;;;;;;;0.57;0.30;;;17.00;99.90;;;;;;5031785;28;20276;-81
2022/06/03 05:25:17;;;;;;;0.17;0.17;;;17.00;99.90;;;;;;5033416;28;20372;-81
2022/06/03 05:28:24;;;;;;;0.20;0.20;;;17.10;99.90;;;;;;5029473;28;20688;-81
2022/06/03 05:31:02;;;;;;;0.30;0.30;;;17.20;99.90;;;;;;5037813;28;20190;-81
2022/06/03 05:33:30;;;;;;;0.20;0.20;;;17.30;99.90;;;;;;5041062;28;20189;-82
2022/06/03 05:36:18;;;;;;;0.27;0.27;;;17.40;99.90;;;;;;5039262;28;20302;-83
2022/06/03 05:39:14;;;;;;;0.30;0.30;;;17.40;99.90;;;;;;5040179;28;20173;-83
2022/06/03 05:45:07;;;;;;;0.87;0.40;;;17.60;99.90;;;;;;5038282;28;20205;-82
2022/06/03 05:47:49;;;;;;;0.50;0.40;;;17.70;99.90;;;;;;5041832;28;20209;-83
2022/06/03 05:50:30;;;;;;;0.53;0.20;;;18.00;99.90;;;;;;5038071;28;20182;-81
2022/06/03 05:53:34;;;;;;;0.30;0.30;;;18.20;99.90;;;;;;5041174;28;20185;-83
2022/06/03 05:56:33;;;;;;;0.30;0.30;;;18.10;99.90;;;;;;5038962;28;20703;-83
2022/06/03 05:59:14;;;;;;;0.73;0.47;;;18.30;99.90;;;;;;5038355;28;20770;-82
2022/06/03 06:02:13;;;;;;;0.30;0.30;;;18.30;99.90;;;;;;5039512;28;20186;-81
2022/06/03 06:05:00;;;;;;;0.23;0.23;;;18.50;99.90;;;;;;5035818;28;20259;-82
2022/06/03 06:07:48;;;;;;;0.47;0.47;;;18.60;99.90;;;;;;5037134;28;20560;-82
2022/06/03 06:10:51;;;;;;;0.20;0.20;;;18.90;99.90;;;;;;5041025;28;20262;-82
2022/06/03 06:13:36;;;;;;;0.20;0.20;;;19.10;99.90;;;;;;5035818;28;20178;-82
2022/06/03 06:16:03;;;;;;;0.20;0.20;;;19.50;99.90;;;;;;5038207;28;20355;-80
2022/06/03 06:18:54;;;;;;;0.37;0.37;;;19.80;99.90;;;;;;5035644;28;20183;-82
2022/06/03 06:21:41;;;;;;;0.27;0.27;;;19.80;99.90;;;;;;5034900;28;20202;-80
2022/06/03 06:24:35;;;;;;;0.20;0.20;;;19.90;99.90;;;;;;5032844;28;20184;-80
2022/06/03 06:27:25;;;;;;;0.30;0.30;;;20.00;99.90;;;;;;5031030;28;20214;-81
2022/06/03 06:30:12;;;;;;;0.20;0.20;;;19.50;99.90;;;;;;5032377;28;20195;-80
2022/06/03 06:32:44;;;;;;;0.20;0.20;;;19.80;99.90;;;;;;5035819;28;20493;-80
2022/06/03 06:35:31;;;;;;;0.17;0.17;;;19.90;99.90;;;;;;5031428;28;20204;-80
2022/06/03 06:38:25;;;;;;;0.33;0.33;;;20.30;99.90;;;;;;5032561;28;20607;-81
2022/06/03 06:41:03;;;;;;;0.30;0.30;;;20.20;99.90;;;;;;5020068;28;20659;-81
2022/06/03 06:43:38;;;;;;;0.33;0.33;;;20.40;99.90;;;;;;5036704;28;20189;-80
2022/06/03 06:46:20;;;;;;;0.40;0.40;;;20.10;99.90;;;;;;5033633;28;20694;-80
2022/06/03 06:48:52;;;;;;;0.30;0.30;;;19.80;99.90;;;;;;5035891;28;20182;-81
2022/06/03 06:51:23;;;;;;;0.37;0.37;;;19.80;99.90;;;;;;5032575;28;20191;-81
2022/06/03 06:53:57;;;;;;;0.27;0.27;;;19.60;99.90;;;;;;5033247;28;20211;-80
2022/06/03 06:56:47;;;;;;;0.20;0.20;;;19.40;99.90;;;;;;5036081;28;20217;-81
2022/06/03 06:59:27;;;;;;;0.20;0.20;;;19.30;99.90;;;;;;5034094;28;20187;-82
2022/06/03 07:02:10;;;;;;;0.27;0.27;;;19.60;99.90;;;;;;5035053;28;20190;-81
2022/06/03 07:04:41;;;;;;;0.30;0.30;;;19.50;99.90;;;;;;5037211;28;20823;-83
2022/06/03 07:07:20;;;;;;;0.20;0.20;;;19.70;99.90;;;;;;5042823;28;20286;-82
2022/06/03 07:10:01;;;;;;;0.40;0.40;;;19.40;99.90;;;;;;5037882;28;20661;-82
2022/06/03 07:12:47;;;;;;;0.17;0.17;;;19.10;99.90;;;;;;5037977;28;20169;-82
2022/06/03 07:15:20;;;;;;;0.30;0.30;;;19.00;99.90;;;;;;5042119;28;20685;-83
2022/06/03 07:21:14;;;;;;;0.33;0.33;;;19.40;99.90;;;;;;5038591;28;20221;-83
2022/06/03 07:23:52;;;;;;;0.20;0.20;;;19.40;99.90;;;;;;5039594;28;20191;-82
2022/06/03 07:26:40;;;;;;;0.13;0.13;;;19.30;99.90;;;;;;5037553;28;21454;-82
2022/06/03 07:29:32;;;;;;;0.30;0.30;;;19.20;99.90;;;;;;5040427;28;20184;-83
2022/06/03 07:32:08;;;;;;;0.40;0.40;;;18.80;99.90;;;;;;5038881;28;20194;-83
2022/06/03 07:34:51;;;;;;;0.27;0.27;;;19.00;99.90;;;;;;5041444;28;20292;-82
2022/06/03 07:37:32;;;;;;;0.23;0.23;;;19.50;99.90;;;;;;5042269;28;20185;-83
2022/06/03 07:40:48;;;;;;;0.30;0.30;;;19.30;99.90;;;;;;5038727;28;20237;-82
2022/06/03 07:43:32;;;;;;;0.20;0.20;;;19.20;99.90;;;;;;5015887;28;20228;-83
2022/06/03 07:46:11;;;;;;;0.10;0.10;;;19.40;99.90;;;;;;5041111;28;20206;-83
2022/06/03 07:48:38;;;;;;;0.30;0.30;;;19.80;99.90;;;;;;5038199;28;20178;-82
2022/06/03 07:51:10;;;;;;;0.40;0.40;;;19.30;99.90;;;;;;5038375;28;20190;-82
2022/06/03 07:53:52;;;;;;;0.30;0.30;;;19.40;99.90;;;;;;5038248;28;20180;-82
2022/06/03 07:56:24;;;;;;;0.40;0.40;;;19.50;99.90;;;;;;5037109;28;20233;-82
2022/06/03 07:58:54;;;;;;;0.30;0.30;;;19.50;99.90;;;;;;5034537;28;20195;-83
2022/06/03 08:01:26;;;;;;;0.60;0.60;;;19.60;99.90;;;;;;5038018;28;20190;-83
2022/06/03 08:03:52;;;;;;;0.40;0.40;;;20.10;99.90;;;;;;5034298;28;20835;-83
2022/06/03 08:10:56;;;;;;;0.40;0.40;;;20.40;99.90;;;;;;5036054;28;20214;-84
2022/06/03 08:12:00;;;;;;;0.20;0.20;;;20.30;99.90;;;;;;5034055;28;20264;-81
2022/06/03 08:14:26;;;;;;;0.30;0.30;;;20.20;99.90;;;;;;5032689;28;20201;-82
2022/06/03 08:16:52;;;;;;;0.30;0.30;;;20.10;99.90;;;;;;5037202;28;20186;-83
2022/06/03 08:19:28;;;;;;;0.23;0.23;;;20.60;99.90;;;;;;5033055;28;20287;-81
2022/06/03 08:21:54;;;;;;;0.30;0.30;;;20.80;99.90;;;;;;5035058;28;20863;-81
2022/06/03 08:24:23;;;;;;;0.80;0.67;;;20.50;99.90;;;;;;5035202;28;20207;-81
2022/06/03 08:26:54;;;;;;;0.37;0.37;;;20.80;99.90;;;;;;5035375;28;20214;-81
2022/06/03 08:29:36;;;;;;;0.40;0.40;;;20.80;99.90;;;;;;5032650;28;20277;-81
2022/06/03 08:32:07;;;;;;;0.30;0.30;;;20.80;99.90;;;;;;5034179;28;20990;-81
2022/06/03 08:34:39;;;;;;;0.60;0.60;;;21.00;99.90;;;;;;5033470;28;20257;-81
2022/06/03 08:37:09;;;;;;;0.60;0.60;;;21.10;99.90;;;;;;5033674;28;20260;-81
2022/06/03 08:39:39;;;;;;;0.40;0.40;;;21.20;99.90;;;;;;5034561;28;20182;-81
2022/06/03 08:42:40;;;;;;;0.30;0.30;;;21.90;99.90;;;;;;5032554;28;20186;-81
2022/06/03 08:45:24;;;;;;;0.37;0.37;;;22.20;99.90;;;;;;5030515;28;20304;-81
2022/06/03 08:47:55;;;;;;;0.40;0.40;;;22.60;99.90;;;;;;5031981;28;20201;-81
2022/06/03 08:50:34;;;;;;;0.50;0.40;;;22.70;99.90;;;;;;5030070;28;20679;-78
2022/06/03 08:53:39;;;;;;;0.20;0.20;;;22.90;99.90;;;;;;5031255;28;20176;-78
2022/06/03 08:56:09;;;;;;;0.37;0.37;;;22.20;99.90;;;;;;4974302;28;20206;-79
2022/06/03 08:58:57;;;;;;;0.33;0.33;;;22.60;99.90;;;;;;5019764;28;20268;-81
2022/06/03 09:01:25;;;;;;;0.40;0.40;;;22.80;99.90;;;;;;5033107;28;20194;-81
2022/06/03 09:04:22;;;;;;;0.63;0.63;;;23.10;99.90;;;;;;5032448;28;20200;-80
2022/06/03 09:07:15;;;;;;;0.20;0.20;;;22.30;99.90;;;;;;5031287;28;20217;-81
2022/06/03 09:09:52;;;;;;;0.30;0.30;;;22.40;99.90;;;;;;5033584;28;20209;-81
2022/06/03 09:12:23;;;;;;;0.50;0.37;;;23.20;99.90;;;;;;5033791;28;20185;-81
2022/06/03 09:14:50;;;;;;;0.70;0.50;;;23.60;99.90;;;;;;5029214;28;20213;-81
2022/06/03 09:17:41;;;;;;;0.40;0.40;;;23.60;99.90;;;;;;5033543;28;21186;-81
2022/06/03 09:20:21;;;;;;;0.57;0.30;;;24.10;99.90;;;;;;5030828;28;20265;-81
2022/06/03 09:22:48;;;;;;;0.33;0.33;;;24.10;99.90;;;;;;5034114;28;20190;-81
2022/06/03 09:25:16;;;;;;;0.30;0.30;;;23.90;99.90;;;;;;5031042;28;20213;-80
2022/06/03 09:27:43;;;;;;;0.53;0.47;;;24.00;99.90;;;;;;5031210;28;20210;-80
2022/06/03 09:30:13;;;;;;;0.50;0.50;;;24.10;99.90;;;;;;5030986;28;20198;-81
2022/06/03 09:32:45;;;;;;;0.60;0.50;;;24.30;99.90;;;;;;5032348;28;20250;-80
2022/06/03 09:35:16;;;;;;;0.43;0.43;;;23.90;99.90;;;;;;5030008;28;20345;-80
2022/06/03 09:37:46;;;;;;;0.57;0.57;;;24.30;99.90;;;;;;5033501;28;20185;-80
2022/06/03 09:40:17;;;;;;;0.50;0.50;;;24.70;99.90;;;;;;5030600;28;20200;-80
2022/06/03 09:42:52;;;;;;;1.03;0.57;;;25.20;99.90;;;;;;5029555;28;20190;-81
2022/06/03 09:45:20;;;;;;;0.40;0.40;;;24.40;99.90;;;;;;5032888;28;20213;-81
2022/06/03 09:47:47;;;;;;;0.83;0.53;;;24.60;99.90;;;;;;5031716;28;20216;-81
2022/06/03 09:50:18;;;;;;;0.70;0.70;;;25.20;99.90;;;;;;5032082;28;20218;-80
2022/06/03 09:52:45;;;;;;;0.43;0.43;;;25.30;99.90;;;;;;5028197;28;20190;-81
2022/06/03 09:55:31;;;;;;;1.53;0.93;;;25.00;99.90;;;;;;5029910;28;20210;-81
2022/06/03 09:57:59;;;;;;;0.37;0.37;;;24.70;99.90;;;;;;5032340;28;20187;-81
2022/06/03 10:00:35;;;;;;;0.50;0.50;;;24.60;99.90;;;;;;5029846;28;20287;-82
2022/06/03 10:03:01;;;;;;;0.37;0.37;;;24.50;99.90;;;;;;5032797;28;20189;-81
2022/06/03 10:05:27;;;;;;;0.70;0.70;;;25.20;99.90;;;;;;5030499;28;20824;-81
2022/06/03 10:08:21;;;;;;;0.77;0.77;;;24.60;99.90;;;;;;5029588;28;20194;-82
2022/06/03 10:13:33;;;;;;;1.23;1.17;;;25.30;99.90;;;;;;5035477;28;20200;-81
2022/06/03 10:16:00;;;;;;;0.97;0.87;;;24.80;99.90;;;;;;5032468;28;20208;-81
2022/06/03 10:18:51;;;;;;;0.30;0.30;;;24.40;99.90;;;;;;5034684;28;20236;-81
2022/06/03 10:21:16;;;;;;;0.50;0.50;;;24.30;99.90;;;;;;5036627;28;20661;-81
2022/06/03 10:23:45;;;;;;;0.77;0.77;;;24.30;99.90;;;;;;5035109;28;20182;-81
2022/06/03 10:26:23;;;;;;;0.30;0.30;;;24.60;99.90;;;;;;5033639;28;20226;-81
2022/06/03 10:28:51;;;;;;;0.50;0.50;;;24.90;99.90;;;;;;5032537;28;20190;-81
2022/06/03 10:31:19;;;;;;;0.60;0.60;;;24.90;99.90;;;;;;5035290;28;20230;-81
2022/06/03 10:33:53;;;;;;;0.40;0.40;;;25.30;99.90;;;;;;5032841;28;20188;-81
2022/06/03 10:36:24;;;;;;;0.53;0.33;;;26.00;99.90;;;;;;5033838;28;20193;-81
2022/06/03 10:38:51;;;;;;;0.30;0.30;;;26.10;99.90;;;;;;5033179;28;20240;-81
2022/06/03 10:41:17;;;;;;;0.43;0.43;;;26.20;99.90;;;;;;5032467;28;20183;-81
2022/06/03 10:43:43;;;;;;;0.40;0.40;;;26.30;99.90;;;;;;5036547;28;20186;-81
2022/06/03 10:46:15;;;;;;;0.50;0.50;;;26.00;99.90;;;;;;5038894;28;20221;-80
2022/06/03 10:48:41;;;;;;;0.43;0.43;;;26.20;99.90;;;;;;5034370;28;20208;-81
2022/06/03 11:01:06;;;;;;;0.70;0.50;;;26.50;99.90;;;;;;5039748;28;20174;-81
2022/06/03 11:02:34;;;;;;;0.50;0.50;;;25.60;99.90;;;;;;5041325;28;20273;-80
2022/06/03 11:05:14;;;;;;;0.83;0.77;;;25.10;99.90;;;;;;5038397;28;20271;-81
2022/06/03 11:07:40;;;;;;;1.37;0.80;;;25.00;99.90;;;;;;5040838;28;20271;-80
2022/06/03 11:10:13;;;;;;;0.43;0.43;;;25.20;99.90;;;;;;5039912;28;20260;-81
2022/06/03 11:12:39;;;;;;;1.93;1.77;;;25.20;99.90;;;;;;5038929;28;20190;-80
2022/06/03 11:15:23;;;;;;;0.63;0.57;;;25.30;99.90;;;;;;5036909;28;21069;-81
2022/06/03 11:17:48;;;;;;;0.83;0.83;;;26.10;99.90;;;;;;5036851;28;20558;-84
2022/06/03 11:20:30;;;;;;;1.20;1.17;;;25.10;99.90;;;;;;5037526;28;20182;-81
2022/06/03 11:22:56;;;;;;;0.40;0.40;;;25.30;99.90;;;;;;5039166;28;20181;-81
2022/06/03 11:25:27;;;;;;;0.20;0.20;;;26.50;99.90;;;;;;5040575;28;20266;-81
2022/06/03 11:28:03;;;;;;;0.60;0.60;;;26.90;99.90;;;;;;5037427;28;20198;-80
2022/06/03 11:30:48;;;;;;;0.47;0.47;;;27.20;99.90;;;;;;5038969;28;20583;-81
2022/06/03 11:33:22;;;;;;;2.63;0.97;;;27.90;99.90;;;;;;5039446;28;20621;-81
2022/06/03 11:35:56;;;;;;;0.93;0.67;;;27.20;99.90;;;;;;5039302;28;20202;-81
2022/06/03 11:38:31;;;;;;;1.30;0.90;;;27.00;99.90;;;;;;5054625;28;20206;-81
2022/06/03 11:41:01;;;;;;;0.70;0.70;;;26.40;99.90;;;;;;5035840;28;20192;-81
2022/06/03 11:43:34;;;;;;;0.80;0.80;;;26.60;99.90;;;;;;5036784;28;20190;-81
2022/06/03 11:46:04;;;;;;;0.70;0.70;;;27.00;99.90;;;;;;5040187;28;20290;-81
2022/06/03 11:48:39;;;;;;;0.80;0.80;;;26.60;99.90;;;;;;5035202;28;20257;-81
2022/06/03 11:51:06;;;;;;;0.60;0.60;;;26.30;99.90;;;;;;5035627;28;21205;-81
2022/06/03 11:53:36;;;;;;;0.67;0.67;;;26.70;99.90;;;;;;5038826;28;20259;-81
2022/06/03 11:56:07;;;;;;;0.70;0.70;;;27.20;99.90;;;;;;5037188;28;20206;-81
2022/06/03 11:58:46;;;;;;;0.53;0.53;;;26.90;99.90;;;;;;5033387;28;20190;-80
2022/06/03 12:01:35;;;;;;;0.47;0.47;;;26.80;99.90;;;;;;5034727;28;20622;-80
2022/06/03 12:04:32;;;;;;;1.40;0.97;;;27.10;99.90;;;;;;5014400;28;20255;-80
2022/06/03 12:07:06;;;;;;;0.50;0.50;;;26.40;99.90;;;;;;5033068;28;20206;-80
2022/06/03 12:09:40;;;;;;;0.97;0.80;;;26.70;99.90;;;;;;5033219;28;20180;-80
2022/06/03 12:15:30;;;;;;;0.80;0.80;;;27.10;99.90;;;;;;5034070;28;21088;-80
2022/06/03 12:17:57;;;;;;;0.70;0.70;;;27.20;99.90;;;;;;5034404;28;20186;-80
2022/06/03 12:20:31;;;;;;;1.50;0.90;;;27.10;99.90;;;;;;5038712;28;20189;-80
2022/06/03 12:22:57;;;;;;;0.67;0.67;;;27.20;99.90;;;;;;5035538;28;20544;-80
2022/06/03 12:25:34;;;;;;;0.50;0.50;;;27.00;99.90;;;;;;5033994;28;20703;-80
2022/06/03 12:28:03;;;;;;;1.60;1.10;;;26.80;99.90;;;;;;5034492;28;20229;-80
2022/06/03 12:30:41;;;;;;;0.57;0.57;;;27.30;99.90;;;;;;5034608;28;20267;-81
2022/06/03 12:33:28;;;;;;;0.77;0.77;;;27.80;99.90;;;;;;5033380;28;20197;-80
2022/06/03 12:35:59;;;;;;;0.57;0.50;;;28.00;99.90;;;;;;5031850;28;20244;-80
2022/06/03 12:38:34;;;;;;;0.63;0.63;;;28.00;99.90;;;;;;5034716;28;20186;-80
2022/06/03 12:41:04;;;;;;;0.80;0.80;;;27.20;99.90;;;;;;5033707;28;20614;-81
2022/06/03 12:43:32;;;;;;;1.00;1.00;;;27.50;99.90;;;;;;5032648;28;20202;-81
2022/06/03 12:46:07;;;;;;;1.03;1.00;;;27.00;99.90;;;;;;5051255;28;20214;-80
2022/06/03 12:48:53;;;;;;;0.63;0.63;;;27.50;99.90;;;;;;5036381;28;20723;-81
2022/06/03 12:51:23;;;;;;;1.27;0.93;;;26.70;99.90;;;;;;5032630;28;20701;-81
2022/06/03 12:53:52;;;;;;;0.50;0.50;;;26.90;99.90;;;;;;5038023;28;20190;-82
2022/06/03 12:56:29;;;;;;;0.30;0.30;;;26.90;99.90;;;;;;5033878;28;20214;-82
2022/06/03 12:59:17;;;;;;;1.23;0.53;;;27.40;99.90;;;;;;5033375;28;20287;-80
2022/06/03 13:02:03;;;;;;;0.47;0.47;;;27.90;99.90;;;;;;5034337;28;20236;-80
2022/06/03 13:04:54;;;;;;;1.20;0.63;;;27.90;99.90;;;;;;5031232;28;20232;-81
2022/06/03 13:07:25;;;;;;;0.70;0.70;;;28.10;99.90;;;;;;5030303;28;20568;-80
2022/06/03 13:10:04;;;;;;;0.55;0.55;;;27.40;99.90;;;;;;5032584;28;20718;-82
2022/06/03 13:12:32;;;;;;;1.42;1.15;;;27.50;99.90;;;;;;5034299;28;20182;-81
2022/06/03 13:15:20;;;;;;;0.70;0.70;;;26.80;99.90;;;;;;5033347;28;20209;-80
2022/06/03 13:18:12;;;;;;;0.57;0.57;;;27.20;99.90;;;;;;5030937;28;20193;-81
2022/06/03 13:20:38;;;;;;;1.25;0.60;;;27.00;99.90;;;;;;5033053;28;20190;-81
2022/06/03 13:23:42;;;;;;;0.67;0.63;;;26.50;99.90;;;;;;5033968;28;20187;-81
2022/06/03 13:26:20;;;;;;;0.37;0.37;;;26.40;99.90;;;;;;5033984;28;20628;-81
2022/06/03 13:29:07;;;;;;;0.60;0.60;;;26.00;99.90;;;;;;5030386;28;20190;-80
2022/06/03 13:31:41;;;;;;;2.83;0.53;;;26.10;99.90;;;;;;5030137;28;20196;-80
2022/06/03 13:34:10;;;;;;;1.40;1.07;;;26.50;99.90;;;;;;5032580;28;20494;-81
2022/06/03 13:36:49;;;;;;;0.50;0.50;;;26.50;99.90;;;;;;5031472;28;20190;-81
2022/06/03 13:39:24;;;;;;;0.50;0.50;;;26.40;99.90;;;;;;5032826;28;20186;-80
2022/06/03 13:44:40;;;;;;;0.73;0.47;;;27.20;99.90;;;;;;5038654;28;20225;-80
2022/06/03 13:47:22;;;;;;;0.50;0.50;;;27.40;99.90;;;;;;5036658;28;20209;-80
2022/06/03 13:50:09;;;;;;;0.60;0.60;;;27.60;99.90;;;;;;5036542;28;20182;-80
2022/06/03 13:52:47;;;;;;;0.40;0.40;;;27.20;99.90;;;;;;5035448;28;20178;-81
2022/06/03 13:55:38;;;;;;;0.83;0.57;;;26.90;99.90;;;;;;5032432;28;20605;-81
2022/06/03 13:58:18;;;;;;;0.77;0.50;;;26.80;99.90;;;;;;5036989;28;20545;-81
2022/06/03 14:00:50;;;;;;;0.70;0.70;;;26.90;99.90;;;;;;5035896;28;20193;-81
2022/06/03 14:03:23;;;;;;;0.55;0.45;;;27.20;99.90;;;;;;5034697;28;20647;-80
2022/06/03 14:05:51;;;;;;;0.80;0.60;;;27.30;99.90;;;;;;5035508;28;20254;-80
2022/06/03 14:08:27;;;;;;;0.50;0.50;;;27.20;99.90;;;;;;5039695;28;20296;-83
2022/06/03 14:11:08;;;;;;;0.83;0.70;;;27.10;99.90;;;;;;5037548;28;20689;-84
2022/06/03 14:13:44;;;;;;;0.57;0.57;;;27.20;99.90;;;;;;5039191;28;20186;-83
2022/06/03 14:16:18;;;;;;;0.60;0.60;;;27.20;99.90;;;;;;5037642;28;20214;-80
2022/06/03 14:18:52;;;;;;;0.50;0.50;;;27.40;99.90;;;;;;5034017;28;20199;-80
2022/06/03 14:21:32;;;;;;;0.47;0.47;;;27.50;99.90;;;;;;5034900;28;20594;-81
2022/06/03 14:24:01;;;;;;;0.83;0.83;;;27.50;99.90;;;;;;5047601;28;20692;-81
2022/06/03 14:26:37;;;;;;;0.50;0.50;;;27.10;99.90;;;;;;5034993;28;20197;-81
2022/06/03 14:29:09;;;;;;;1.23;0.85;;;27.40;99.90;;;;;;5033497;28;20177;-80